Warning: Javascript must be enabled to use all the features on this page!


Page Loading - Please Wait...

Click to hideNews Bulletins

Peak Streamflow for the Nation

USGS 02471500 OAKOHAY CREEK AT MIZE, MS

Smith County, Mississippi
Hydrologic Unit Code 03170004
Latitude  31°52'00", Longitude  89°32'51" NAD83
Drainage area 171  square miles
Contributing drainage area 171  square miles
Gage datum 274.18 feet above NGVD29
Output formats
Table
Graph
Tab-separated file
peakfq (watstore) format
Reselect output format
Water
Year
Date Gage
Height
(feet)
Stream-
flow
(cfs)
1942 1942-03-21 13.00 7,830
1943 1943-03-21 11.70 3,750
1944 1944-02-29 12.00 3,930
1945 1945-02-15 11.05 2,690
1946 1946-02-11 11.85 3,650
1947 1947-01-20 13.49 9,710
1948 1948-02-14 12.50 6,070
1949 1949-03-31 13.69 7,210
1961 1961-02-21 15.13 13,0007
1968 1968-03-23 11.84 3,720
1969 1969-04-14 13.03 6,380
1970 1970-03-04 9.49 1,010
1971 1971-02-21 12.16 4,360
1972 1971-12-06 12.88 5,990
1973 1973-03-25 13.51 7,730
1974 1974-04-13 17.26 28,900
1975 1975-01-08 13.36 7,290
1976 1976-03-31 12.94 6,140
1978 1977-12-01 11.76 3,570
1979 1979-03-05 13.68 8,300
1980 1980-04-13 14.68 12,200
1981 1981-03-29 12.84 6,100
1982 1982-02-16 11.83 3,700
1983 1983-04-07 15.62 16,900
1984 1984-03-05 11.97 3,900
1985 1984-10-23 12.10 4,200
1986 1985-11-27 11.85 3,700
1987 1987-03-01 13.70 8,380
1988 1988-04-02 11.48 2,300
1989 1988-11-20 11.70 3,450
1990 1990-02-16 14.15 10,100
1991 1991-04-30 13.39 7,400
1992 1992-08-27 12.65 5,600
1993 1993-01-21 12.48 4,600
1994 1994-01-28 13.77 7,800
1995 1995-04-21 12.75 5,200
1996 1996-03-07 12.13 4,000
1997 1997-04-28 14.70 10,400
1998 1998-01-07 12.59 3,480
1999 1999-01-23 13.17 4,630
2000 2000-04-05 10.624 1,3804
2001 2001-03-02 13.52 5,550
2002 2001-10-14 11.48 2,050
2003 2003-02-23 15.01 11,800
2004 2004-02-06 14.94 11,400
2005 2005-02-02 12.19 2,840
2006 2006-03-21 13.07 4,390
2007 2006-12-31 10.99 1,620
2008 2008-02-24 12.39 3,150
2009 2009-03-28 13.76 6,260
2010 2009-12-15 11.24 1,830
2011 2011-03-09 12.90 4,040
2012 2012-03-22 12.53 3,700
2013 2013-02-11 12.94 4,110
2014 2014-04-07 14.03 7,150
2015 2015-04-19 11.98 2,550
2016 2016-03-12 12.87 3,980
2017 2017-04-04 13.04 4,320
2018 2018-04-15 11.44 2,010
2019 2018-12-28 13.10 4,460
2020 2020-04-21 12.97 4,170
?
  Peak Gage-Height Qualification Codes.
?
  Peak Streamflow Qualification Codes.